createdAt,value
2018-09-09T00:00:09.916Z,18.70
2018-09-09T00:02:38.155Z,18.61
2018-09-09T00:05:05.577Z,18.60
2018-09-09T00:07:33.056Z,18.52
2018-09-09T00:10:00.540Z,18.49
2018-09-09T00:12:27.976Z,18.57
2018-09-09T00:14:55.398Z,18.61
2018-09-09T00:17:22.835Z,18.67
2018-09-09T00:19:50.293Z,18.72
2018-09-09T00:22:17.749Z,18.78
2018-09-09T00:24:45.223Z,18.80
2018-09-09T00:27:12.688Z,18.76
2018-09-09T00:29:40.363Z,18.72
2018-09-09T00:32:07.759Z,18.70
2018-09-09T00:34:35.208Z,18.73
2018-09-09T00:37:02.649Z,18.73
2018-09-09T00:39:30.068Z,18.76
2018-09-09T00:41:57.519Z,18.77
2018-09-09T00:44:25.410Z,18.78
2018-09-09T00:46:52.850Z,18.71
2018-09-09T00:49:20.339Z,18.69
2018-09-09T00:54:39.967Z,18.90
2018-09-09T00:57:07.391Z,18.82
2018-09-09T00:59:34.872Z,18.79
2018-09-09T01:02:02.331Z,18.71
2018-09-09T01:04:29.763Z,18.63
2018-09-09T01:06:57.222Z,18.56
2018-09-09T01:09:24.678Z,18.43
2018-09-09T01:11:52.131Z,18.39
2018-09-09T01:14:19.541Z,18.33
2018-09-09T01:16:47.020Z,18.34
2018-09-09T01:19:14.459Z,18.30
2018-09-09T01:21:41.974Z,18.26
2018-09-09T01:24:09.373Z,18.24
2018-09-09T01:26:36.795Z,18.21
2018-09-09T01:29:04.281Z,18.08
2018-09-09T01:31:31.795Z,18.00
2018-09-09T01:33:59.222Z,17.97
2018-09-09T01:36:26.728Z,17.97
2018-09-09T01:38:54.195Z,17.96
2018-09-09T01:41:21.637Z,17.90
2018-09-09T01:43:49.084Z,17.69
2018-09-09T01:46:16.532Z,17.54
2018-09-09T01:48:43.983Z,17.50
2018-09-09T01:51:11.486Z,17.42
2018-09-09T01:53:38.926Z,17.44
2018-09-09T01:56:06.355Z,17.51
2018-09-09T01:58:34.221Z,17.58
2018-09-09T02:01:01.677Z,17.61
2018-09-09T02:03:29.089Z,17.63
2018-09-09T02:05:56.596Z,17.55
2018-09-09T02:08:29.052Z,17.62
2018-09-09T02:10:56.447Z,17.63
2018-09-09T02:13:24.018Z,17.60
2018-09-09T02:15:51.447Z,17.56
2018-09-09T02:18:18.902Z,17.49
2018-09-09T02:20:46.454Z,17.28
2018-09-09T02:23:13.946Z,17.21
2018-09-09T02:25:41.401Z,17.27
2018-09-09T02:28:08.847Z,17.28
2018-09-09T02:30:36.290Z,17.17
2018-09-09T02:33:03.759Z,17.09
2018-09-09T02:35:31.247Z,17.17
2018-09-09T02:37:58.664Z,17.21
2018-09-09T02:40:26.187Z,17.23
2018-09-09T02:42:53.630Z,17.28
2018-09-09T02:45:21.103Z,17.29
2018-09-09T02:47:48.564Z,17.31
2018-09-09T02:50:16.026Z,17.25
2018-09-09T02:52:43.522Z,17.11
2018-09-09T02:55:10.952Z,17.06
2018-09-09T02:57:38.429Z,17.05
2018-09-09T03:00:05.818Z,17.12
2018-09-09T03:02:33.312Z,17.17
2018-09-09T03:05:00.733Z,17.19
2018-09-09T03:07:28.164Z,17.18
2018-09-09T03:09:55.610Z,17.18
2018-09-09T03:12:23.068Z,17.19
2018-09-09T03:14:50.521Z,17.21
2018-09-09T03:17:17.952Z,17.15
2018-09-09T03:19:45.386Z,17.09
2018-09-09T03:22:12.816Z,17.00
2018-09-09T03:24:40.551Z,16.98
2018-09-09T03:27:08.042Z,16.99
2018-09-09T03:29:35.468Z,16.90
2018-09-09T03:32:02.895Z,16.87
2018-09-09T03:34:30.399Z,16.88
2018-09-09T03:36:57.831Z,16.87
2018-09-09T03:39:25.228Z,16.76
2018-09-09T03:41:52.716Z,16.66
2018-09-09T03:44:20.118Z,16.67
2018-09-09T03:46:47.598Z,16.74
2018-09-09T03:49:15.041Z,16.81
2018-09-09T03:51:42.457Z,16.85
2018-09-09T03:54:09.907Z,16.85
2018-09-09T03:56:37.348Z,16.81
2018-09-09T03:59:04.840Z,16.82
2018-09-09T04:01:32.318Z,16.83
2018-09-09T04:03:59.788Z,16.84
2018-09-09T04:06:27.231Z,16.86
2018-09-09T04:08:54.782Z,16.83
2018-09-09T04:11:22.182Z,16.83
2018-09-09T04:13:49.632Z,16.77
2018-09-09T04:16:17.064Z,16.69
2018-09-09T04:18:44.505Z,16.76
2018-09-09T04:21:11.973Z,16.78
2018-09-09T04:23:39.412Z,16.75
2018-09-09T04:26:06.852Z,16.72
2018-09-09T04:28:34.257Z,16.68
2018-09-09T04:31:01.814Z,16.69
2018-09-09T04:33:29.247Z,16.69
2018-09-09T04:35:56.717Z,16.68
2018-09-09T04:38:24.218Z,16.63
2018-09-09T04:40:52.631Z,16.59
2018-09-09T04:43:20.170Z,16.58
2018-09-09T04:45:47.728Z,16.57
2018-09-09T04:48:15.171Z,16.53
2018-09-09T04:50:42.556Z,16.41
2018-09-09T04:53:10.066Z,16.43
2018-09-09T04:55:37.541Z,16.43
2018-09-09T04:58:05.013Z,16.42
2018-09-09T05:02:59.186Z,16.38
2018-09-09T05:05:26.649Z,16.37
2018-09-09T05:07:54.060Z,16.38
2018-09-09T05:10:21.504Z,16.43
2018-09-09T05:12:48.963Z,16.43
2018-09-09T05:15:16.413Z,16.46
2018-09-09T05:17:43.945Z,16.49
2018-09-09T05:20:11.455Z,16.49
2018-09-09T05:22:38.921Z,16.54
2018-09-09T05:25:06.397Z,16.53
2018-09-09T05:27:34.244Z,16.52
2018-09-09T05:30:01.697Z,16.59
2018-09-09T05:32:29.134Z,16.64
2018-09-09T05:34:56.780Z,16.69
2018-09-09T05:37:24.217Z,16.79
2018-09-09T05:39:51.689Z,16.88
2018-09-09T05:42:19.223Z,16.83
2018-09-09T05:44:46.766Z,16.71
2018-09-09T05:47:14.207Z,16.59
2018-09-09T05:49:41.671Z,16.62
2018-09-09T05:52:09.097Z,16.64
2018-09-09T05:54:36.498Z,17.04
2018-09-09T05:57:03.997Z,17.80
2018-09-09T05:59:31.496Z,18.35
2018-09-09T06:01:58.931Z,18.78
2018-09-09T06:04:26.329Z,19.40
2018-09-09T06:06:53.763Z,19.94
2018-09-09T06:09:21.193Z,20.35
2018-09-09T06:11:48.640Z,20.45
2018-09-09T06:14:16.118Z,20.62
2018-09-09T06:16:43.613Z,20.65
2018-09-09T06:19:11.052Z,20.72
2018-09-09T06:21:38.486Z,21.05
2018-09-09T06:24:05.996Z,21.60
2018-09-09T06:26:33.461Z,21.80
2018-09-09T06:29:00.977Z,22.20
2018-09-09T06:31:28.428Z,22.52
2018-09-09T06:33:55.955Z,22.86
2018-09-09T06:36:23.697Z,23.13
2018-09-09T06:38:51.166Z,23.34
2018-09-09T06:41:18.597Z,23.76
2018-09-09T06:43:46.024Z,23.73
2018-09-09T06:46:13.587Z,23.52
2018-09-09T06:48:41.023Z,23.60
2018-09-09T06:51:08.445Z,23.76
2018-09-09T06:53:35.874Z,23.95
2018-09-09T06:56:03.388Z,24.21
2018-09-09T06:58:30.928Z,24.52
2018-09-09T07:00:58.417Z,24.76
2018-09-09T07:03:25.418Z,25.40
2018-09-09T07:05:52.846Z,25.91
2018-09-09T07:08:20.322Z,25.97
2018-09-09T07:10:47.779Z,26.07
2018-09-09T07:13:14.737Z,26.19
2018-09-09T07:15:41.771Z,26.15
2018-09-09T07:18:08.770Z,25.70
2018-09-09T07:20:35.801Z,25.20
2018-09-09T07:23:02.836Z,24.90
2018-09-09T07:25:29.789Z,24.93
2018-09-09T07:27:56.809Z,25.05
2018-09-09T07:30:23.820Z,25.74
2018-09-09T07:32:50.853Z,26.25
2018-09-09T07:35:17.898Z,26.99
2018-09-09T07:37:44.907Z,27.26
2018-09-09T07:40:12.320Z,27.24
2018-09-09T07:42:39.764Z,27.53
2018-09-09T07:45:07.202Z,28.12
2018-09-09T07:47:34.658Z,28.71
2018-09-09T07:50:01.701Z,29.18
2018-09-09T07:52:28.764Z,29.15
2018-09-09T07:54:56.210Z,29.07
2018-09-09T07:57:23.829Z,29.27
2018-09-09T07:59:50.859Z,29.24
2018-09-09T08:02:17.834Z,28.92
2018-09-09T08:04:44.822Z,29.15
2018-09-09T08:07:11.794Z,29.68
2018-09-09T08:09:38.857Z,29.84
2018-09-09T08:12:06.282Z,30.29
2018-09-09T08:14:33.728Z,30.67
2018-09-09T08:17:00.759Z,30.43
2018-09-09T08:19:27.773Z,30.68
2018-09-09T08:21:54.802Z,30.67
2018-09-09T08:24:21.787Z,30.44
2018-09-09T08:26:49.390Z,30.76
2018-09-09T08:29:16.838Z,30.51
2018-09-09T08:31:44.339Z,30.41
2018-09-09T08:34:11.326Z,30.88
2018-09-09T08:36:38.334Z,30.80
2018-09-09T08:39:05.835Z,31.08
2018-09-09T08:41:32.926Z,31.45
2018-09-09T08:43:59.898Z,30.62
2018-09-09T08:46:26.920Z,30.02
2018-09-09T08:48:53.939Z,30.45
2018-09-09T08:51:20.966Z,30.71
2018-09-09T08:53:47.925Z,30.61
2018-09-09T08:56:14.965Z,30.06
2018-09-09T08:58:42.207Z,29.74
2018-09-09T09:01:10.001Z,29.68
2018-09-09T09:03:37.010Z,28.83
2018-09-09T09:06:04.027Z,28.22
2018-09-09T09:08:31.176Z,27.65
2018-09-09T09:10:58.295Z,27.27
2018-09-09T09:13:25.317Z,27.07
2018-09-09T09:15:52.272Z,26.82
2018-09-09T09:18:20.913Z,26.97
2018-09-09T09:20:48.480Z,27.09
2018-09-09T09:23:15.512Z,27.26
2018-09-09T09:25:42.989Z,27.13
2018-09-09T09:28:10.431Z,26.87
2018-09-09T09:30:37.894Z,26.84
2018-09-09T09:33:05.382Z,27.42
2018-09-09T09:35:32.873Z,27.90
2018-09-09T09:37:59.853Z,27.91
2018-09-09T09:40:27.336Z,28.31
2018-09-09T09:42:54.753Z,28.29
2018-09-09T09:45:22.006Z,28.24
2018-09-09T09:47:49.616Z,28.22
2018-09-09T09:50:16.594Z,28.57
2018-09-09T09:52:44.046Z,28.29
2018-09-09T09:55:11.531Z,28.16
2018-09-09T09:57:38.986Z,27.94
2018-09-09T10:00:07.304Z,27.97
2018-09-09T10:02:34.826Z,27.91
2018-09-09T10:05:02.304Z,27.45
2018-09-09T10:07:29.775Z,27.37
2018-09-09T10:09:57.214Z,27.29
2018-09-09T10:12:24.691Z,27.46
2018-09-09T10:14:52.136Z,27.66
2018-09-09T10:17:19.558Z,27.83
2018-09-09T10:19:47.045Z,27.82
2018-09-09T10:22:14.528Z,27.82
2018-09-09T10:24:41.978Z,28.10
2018-09-09T10:27:09.374Z,28.43
2018-09-09T10:29:36.867Z,28.60
2018-09-09T10:32:04.349Z,28.29
2018-09-09T10:34:31.901Z,28.19
2018-09-09T10:36:59.004Z,28.26
2018-09-09T10:39:26.436Z,27.90
2018-09-09T10:41:53.875Z,28.02
2018-09-09T10:44:21.350Z,28.28
2018-09-09T10:46:49.112Z,28.31
2018-09-09T10:49:16.581Z,28.52
2018-09-09T10:51:43.551Z,29.11
2018-09-09T10:54:11.003Z,29.35
2018-09-09T10:56:38.427Z,29.63
2018-09-09T10:59:05.839Z,29.74
2018-09-09T11:01:33.328Z,29.51
2018-09-09T11:04:01.700Z,29.59
2018-09-09T11:06:29.206Z,29.73
2018-09-09T11:08:56.661Z,29.50
2018-09-09T11:11:24.063Z,29.28
2018-09-09T11:13:51.507Z,29.23
2018-09-09T11:16:19.047Z,29.43
2018-09-09T11:18:46.494Z,29.48
2018-09-09T11:21:13.957Z,29.41
2018-09-09T11:23:41.410Z,29.57
2018-09-09T11:26:08.852Z,29.58
2018-09-09T11:28:37.465Z,29.61
2018-09-09T11:31:04.926Z,29.55
2018-09-09T11:33:32.388Z,29.50
2018-09-09T11:35:59.829Z,29.58
2018-09-09T11:38:27.226Z,29.96
2018-09-09T11:40:54.676Z,30.13
2018-09-09T11:43:22.086Z,30.23
2018-09-09T11:45:49.563Z,30.39
2018-09-09T11:48:17.099Z,30.53
2018-09-09T11:50:44.569Z,30.63
2018-09-09T11:53:12.212Z,30.69
2018-09-09T11:55:39.614Z,30.79
2018-09-09T11:58:07.090Z,30.71
2018-09-09T12:00:34.705Z,30.82
2018-09-09T12:03:02.166Z,30.82
2018-09-09T12:05:29.610Z,30.93
2018-09-09T12:07:57.039Z,30.95
2018-09-09T12:10:24.524Z,31.11
2018-09-09T12:12:51.501Z,31.32
2018-09-09T12:15:18.966Z,31.27
2018-09-09T12:17:46.449Z,31.43
2018-09-09T12:20:13.954Z,31.31
2018-09-09T12:22:41.391Z,31.28
2018-09-09T12:25:08.812Z,31.28
2018-09-09T12:27:36.283Z,31.42
2018-09-09T12:30:03.734Z,31.59
2018-09-09T12:32:31.242Z,31.69
2018-09-09T12:34:58.698Z,31.93
2018-09-09T12:37:26.586Z,32.35
2018-09-09T12:39:54.002Z,32.15
2018-09-09T12:42:21.492Z,32.22
2018-09-09T12:47:44.505Z,32.63
2018-09-09T12:50:11.940Z,33.03
2018-09-09T12:52:39.483Z,33.06
2018-09-09T12:55:06.920Z,32.94
2018-09-09T12:57:34.431Z,32.99
2018-09-09T13:00:01.871Z,33.21
2018-09-09T13:02:29.266Z,32.95
2018-09-09T13:04:56.726Z,32.40
2018-09-09T13:07:24.241Z,32.38
2018-09-09T13:09:51.548Z,32.39
2018-09-09T13:12:19.009Z,32.56
2018-09-09T13:14:46.454Z,32.05
2018-09-09T13:17:14.009Z,32.13
2018-09-09T13:19:41.424Z,32.34
2018-09-09T13:22:09.632Z,32.74
2018-09-09T13:24:37.027Z,32.97
2018-09-09T13:27:04.519Z,32.78
2018-09-09T13:29:31.967Z,32.95
2018-09-09T13:31:59.418Z,32.79
2018-09-09T13:34:26.865Z,32.06
2018-09-09T13:36:54.349Z,31.71
2018-09-09T13:39:21.807Z,31.72
2018-09-09T13:41:49.239Z,31.85
2018-09-09T13:44:16.777Z,31.98
2018-09-09T13:46:44.291Z,32.30
2018-09-09T13:49:11.734Z,32.57
2018-09-09T13:51:39.240Z,32.74
2018-09-09T13:54:06.745Z,32.75
2018-09-09T13:56:34.185Z,33.09
2018-09-09T13:59:01.639Z,33.42
2018-09-09T14:01:29.158Z,33.46
2018-09-09T14:03:56.741Z,33.11
2018-09-09T14:06:24.230Z,33.14
2018-09-09T14:08:51.837Z,32.35
2018-09-09T14:11:20.069Z,31.88
2018-09-09T14:13:47.529Z,31.64
2018-09-09T14:16:15.002Z,32.02
2018-09-09T14:18:42.440Z,31.98
2018-09-09T14:21:09.997Z,32.13
2018-09-09T14:23:36.970Z,32.32
2018-09-09T14:26:04.504Z,32.27
2018-09-09T14:28:31.491Z,32.41
2018-09-09T14:30:59.095Z,32.34
2018-09-09T14:33:26.614Z,32.23
2018-09-09T14:35:53.586Z,32.22
2018-09-09T14:38:21.092Z,32.14
2018-09-09T14:40:48.549Z,31.74
2018-09-09T14:43:16.031Z,31.70
2018-09-09T14:45:43.537Z,31.78
2018-09-09T14:48:10.976Z,31.94
2018-09-09T14:50:38.455Z,32.27
2018-09-09T14:53:05.968Z,32.04
2018-09-09T14:55:33.360Z,31.80
2018-09-09T14:58:00.801Z,31.74
2018-09-09T15:00:28.391Z,31.83
2018-09-09T15:02:55.870Z,31.96
2018-09-09T15:05:24.118Z,31.64
2018-09-09T15:07:51.573Z,31.52
2018-09-09T15:10:19.166Z,31.89
2018-09-09T15:12:46.687Z,32.10
2018-09-09T15:15:14.183Z,31.91
2018-09-09T15:17:41.588Z,31.84
2018-09-09T15:20:09.007Z,32.05
2018-09-09T15:22:36.557Z,31.79
2018-09-09T15:25:03.928Z,31.81
2018-09-09T15:27:31.538Z,31.73
2018-09-09T15:29:59.020Z,31.72
2018-09-09T15:32:26.497Z,31.67
2018-09-09T15:34:53.927Z,32.02
2018-09-09T15:37:21.374Z,32.44
2018-09-09T15:39:48.877Z,32.43
2018-09-09T15:42:16.316Z,32.34
2018-09-09T15:44:43.761Z,32.00
2018-09-09T15:47:10.893Z,31.46
2018-09-09T15:49:38.372Z,31.35
2018-09-09T15:52:05.906Z,31.39
2018-09-09T15:54:33.283Z,30.97
2018-09-09T15:57:00.725Z,30.64
2018-09-09T15:59:28.301Z,30.46
2018-09-09T16:01:55.872Z,30.34
2018-09-09T16:04:23.344Z,30.58
2018-09-09T16:06:50.812Z,30.89
2018-09-09T16:09:18.412Z,31.04
2018-09-09T16:11:45.905Z,30.94
2018-09-09T16:14:13.355Z,30.63
2018-09-09T16:16:41.179Z,30.54
2018-09-09T16:19:08.682Z,30.43
2018-09-09T16:21:36.096Z,30.23
2018-09-09T16:24:03.503Z,30.38
2018-09-09T16:26:30.918Z,30.29
2018-09-09T16:28:58.464Z,30.32
2018-09-09T16:31:26.069Z,30.13
2018-09-09T16:33:53.651Z,30.17
2018-09-09T16:36:21.168Z,30.30
2018-09-09T16:38:48.630Z,30.32
2018-09-09T16:41:16.094Z,30.01
2018-09-09T16:43:44.174Z,29.90
2018-09-09T16:46:11.611Z,29.59
2018-09-09T16:48:39.056Z,29.23
2018-09-09T16:51:06.474Z,28.73
2018-09-09T16:53:34.037Z,28.27
2018-09-09T16:56:01.512Z,27.97
2018-09-09T16:58:28.951Z,27.79
2018-09-09T17:00:56.404Z,27.68
2018-09-09T17:03:24.026Z,27.55
2018-09-09T17:05:51.503Z,27.49
2018-09-09T17:08:18.976Z,27.48
2018-09-09T17:10:46.403Z,27.32
2018-09-09T17:13:13.866Z,27.15
2018-09-09T17:15:41.295Z,27.06
2018-09-09T17:18:08.775Z,26.93
2018-09-09T17:20:36.220Z,26.72
2018-09-09T17:23:03.655Z,26.58
2018-09-09T17:25:31.108Z,26.44
2018-09-09T17:27:58.568Z,26.35
2018-09-09T17:30:26.094Z,26.28
2018-09-09T17:32:53.612Z,26.22
2018-09-09T17:35:21.302Z,26.11
2018-09-09T17:37:48.733Z,26.02
2018-09-09T17:40:16.270Z,25.94
2018-09-09T17:42:43.743Z,25.91
2018-09-09T17:45:11.176Z,25.83
2018-09-09T17:47:39.015Z,25.77
2018-09-09T17:50:06.540Z,25.76
2018-09-09T17:52:34.516Z,25.68
2018-09-09T17:55:02.613Z,25.57
2018-09-09T17:57:30.069Z,25.52
2018-09-09T17:59:57.525Z,25.46
2018-09-09T18:02:25.036Z,25.47
2018-09-09T18:04:52.472Z,25.44
2018-09-09T18:07:19.953Z,25.39
2018-09-09T18:09:47.390Z,25.34
2018-09-09T18:12:14.885Z,25.29
2018-09-09T18:14:42.344Z,25.13
2018-09-09T18:17:09.739Z,25.04
2018-09-09T18:19:37.333Z,25.02
2018-09-09T18:22:05.070Z,24.99
2018-09-09T18:24:32.494Z,25.00
2018-09-09T18:26:59.933Z,25.00
2018-09-09T18:29:27.422Z,24.98
2018-09-09T18:31:54.908Z,24.98
2018-09-09T18:34:22.707Z,24.95
2018-09-09T18:36:50.123Z,24.94
2018-09-09T18:39:17.601Z,25.00
2018-09-09T18:41:46.023Z,25.02
2018-09-09T18:44:13.479Z,24.98
2018-09-09T18:46:40.936Z,24.99
2018-09-09T18:49:08.368Z,24.95
2018-09-09T18:51:35.977Z,24.89
2018-09-09T18:54:03.525Z,24.86
2018-09-09T18:56:31.607Z,24.83
2018-09-09T18:58:59.360Z,24.85
2018-09-09T19:01:27.042Z,24.89
2018-09-09T19:03:54.628Z,24.83
2018-09-09T19:06:22.196Z,24.70
2018-09-09T19:08:49.628Z,24.68
2018-09-09T19:11:17.237Z,24.68
2018-09-09T19:13:46.037Z,24.66
2018-09-09T19:16:13.743Z,24.63
2018-09-09T19:18:41.469Z,24.53
2018-09-09T19:21:08.994Z,24.46
2018-09-09T19:23:36.589Z,24.44
2018-09-09T19:26:04.585Z,24.47
2018-09-09T19:28:32.067Z,24.51
2018-09-09T19:30:59.536Z,24.61
2018-09-09T19:33:26.962Z,24.65
2018-09-09T19:35:54.406Z,24.68
2018-09-09T19:38:21.876Z,24.69
2018-09-09T19:40:49.318Z,24.63
2018-09-09T19:43:16.771Z,24.64
2018-09-09T19:45:44.205Z,24.61
2018-09-09T19:48:11.651Z,24.60
2018-09-09T19:50:39.063Z,24.69
2018-09-09T19:53:06.474Z,24.64
2018-09-09T19:55:33.925Z,24.62
2018-09-09T19:58:01.327Z,24.57
2018-09-09T20:00:28.785Z,24.55
2018-09-09T20:02:56.210Z,24.56
2018-09-09T20:05:23.718Z,24.53
2018-09-09T20:07:51.159Z,24.55
2018-09-09T20:10:18.614Z,24.57
2018-09-09T20:12:46.134Z,24.51
2018-09-09T20:15:13.628Z,24.43
2018-09-09T20:17:41.072Z,24.36
2018-09-09T20:20:08.561Z,24.30
2018-09-09T20:22:36.051Z,24.29
2018-09-09T20:25:03.465Z,24.25
2018-09-09T20:27:30.907Z,24.27
2018-09-09T20:29:58.377Z,24.27
2018-09-09T20:32:25.902Z,24.22
2018-09-09T20:34:53.371Z,24.12
2018-09-09T20:37:20.886Z,24.00
2018-09-09T20:39:48.405Z,23.88
2018-09-09T20:42:15.872Z,23.80
2018-09-09T20:44:43.338Z,23.81
2018-09-09T20:47:10.821Z,23.78
2018-09-09T20:49:38.312Z,23.79
2018-09-09T20:52:05.729Z,23.82
2018-09-09T20:54:33.155Z,23.80
2018-09-09T20:57:00.603Z,23.85
2018-09-09T20:59:28.067Z,23.88
2018-09-09T21:01:55.540Z,23.86
2018-09-09T21:04:23.015Z,23.74
2018-09-09T21:06:50.515Z,23.55
2018-09-09T21:09:17.987Z,23.39
2018-09-09T21:11:45.491Z,23.40
2018-09-09T21:14:12.904Z,23.37
2018-09-09T21:16:40.392Z,23.37
2018-09-09T21:19:07.750Z,23.37
2018-09-09T21:21:35.167Z,23.30
2018-09-09T21:24:04.215Z,23.36
2018-09-09T21:26:32.580Z,23.46
2018-09-09T21:29:00.077Z,23.37
2018-09-09T21:31:27.535Z,23.27
2018-09-09T21:33:54.972Z,23.18
2018-09-09T21:36:22.390Z,23.06
2018-09-09T21:38:49.935Z,23.03
2018-09-09T21:41:17.372Z,22.98
2018-09-09T21:43:44.939Z,22.95
2018-09-09T21:46:12.380Z,22.92
2018-09-09T21:48:39.769Z,22.88
2018-09-09T21:51:07.388Z,22.83
2018-09-09T21:53:34.803Z,22.76
2018-09-09T21:56:02.243Z,22.75
2018-09-09T21:58:29.662Z,22.70
2018-09-09T22:00:57.156Z,22.64
2018-09-09T22:03:24.603Z,22.62
2018-09-09T22:05:52.114Z,22.64
2018-09-09T22:08:19.556Z,22.58
2018-09-09T22:10:47.011Z,22.52
2018-09-09T22:13:14.485Z,22.49
2018-09-09T22:15:41.915Z,22.51
2018-09-09T22:18:10.210Z,22.44
2018-09-09T22:20:37.675Z,22.35
2018-09-09T22:23:05.102Z,22.36
2018-09-09T22:25:32.535Z,22.34
2018-09-09T22:27:59.997Z,22.30
2018-09-09T22:30:27.439Z,22.26
2018-09-09T22:32:54.883Z,22.17
2018-09-09T22:35:23.022Z,21.97
2018-09-09T22:37:50.512Z,21.93
2018-09-09T22:40:17.981Z,21.96
2018-09-09T22:42:45.452Z,22.00
2018-09-09T22:45:13.110Z,22.02
2018-09-09T22:47:40.632Z,22.02
2018-09-09T22:50:08.076Z,21.93
2018-09-09T22:52:35.512Z,21.83
2018-09-09T22:55:03.017Z,21.72
2018-09-09T22:57:30.493Z,21.70
2018-09-09T22:59:57.950Z,21.72
2018-09-09T23:02:25.339Z,21.71
2018-09-09T23:04:52.846Z,21.72
2018-09-09T23:07:20.447Z,21.67
2018-09-09T23:09:47.860Z,21.62
2018-09-09T23:12:15.839Z,21.58
2018-09-09T23:14:43.454Z,21.51
2018-09-09T23:17:10.860Z,21.54
2018-09-09T23:19:38.338Z,21.58
2018-09-09T23:22:05.814Z,21.62
2018-09-09T23:24:33.212Z,21.63
2018-09-09T23:27:00.693Z,21.69
2018-09-09T23:29:28.142Z,21.68
2018-09-09T23:31:55.617Z,21.62
2018-09-09T23:34:23.107Z,21.55
2018-09-09T23:36:50.809Z,21.43
2018-09-09T23:39:18.273Z,21.42
2018-09-09T23:41:46.471Z,21.47
2018-09-09T23:44:14.048Z,21.45
2018-09-09T23:46:41.506Z,21.45
2018-09-09T23:49:08.983Z,21.48
2018-09-09T23:51:36.431Z,21.49
2018-09-09T23:54:03.867Z,21.36
2018-09-09T23:56:31.319Z,21.31
2018-09-09T23:58:58.760Z,21.21
